Flight Track Log - Related Links

Times and Time Zones

All times are in EDT time to prevent confusion due to time zone crossing. See the N6198F flight status page for this flight to view local times or setup timezone preferences in your user account.

Time Position Orientation Groundspeed Altitude Reporting Facility
EDT Latitude Longitude Course Direction KTS MPH feet Rate Location/Type
Sat 10:53:46 AM 34.1086 -86.2342 320° Northwest 108 124 4,500  Level Atlanta Center
Sat 10:54:41 AM 34.1292 -86.2522 324° Northwest 104 120 4,500 62 Level Atlanta Center
Sat 10:55:23 AM 34.1436 -86.2675 319° Northwest 103 119 4,600 58 Climbing Atlanta Center
Sat 10:56:24 AM 34.1683 -86.2883 325° Northwest 101 116 4,600  Level Atlanta Center
Sat 10:57:43 AM 34.1947 -86.3217 314° West 99 114 4,600  Level Atlanta Center
Sat 10:59:00 AM 34.0901 -86.2093 320° Northwest  Level Estimated
Sat 10:59:00 AM 34.2270 -86.3493 325° Northwest  Level FlightAware Approximate
Sat 11:06:00 AM 34.3914 -86.5183 318° Northwest  Level FlightAware Approximate
Sat 11:07:00 AM 34.4143 -86.5432 318° Northwest  Level FlightAware Approximate
Sat 11:08:00 AM 34.4373 -86.5681 318° Northwest  Level FlightAware Approximate
Sat 11:09:00 AM 34.4602 -86.5930 318° Northwest  Level FlightAware Approximate
Sat 11:10:00 AM 34.4837 -86.6171 321° Northwest  Level FlightAware Approximate
Sat 11:11:00 AM 34.5075 -86.6408 321° Northwest  Level FlightAware Approximate
Sat 11:12:00 AM 34.5317 -86.6650 321° Northwest  Level FlightAware Approximate
Sat 11:13:00 AM 34.5559 -86.6892 321° Northwest  Level FlightAware Approximate
Sat 11:14:00 AM 34.5801 -86.7134 321° Northwest  Level FlightAware Approximate
Sat 11:15:00 AM 34.6043 -86.7376 321° Northwest  Level FlightAware Approximate
Sat 11:16:00 AM 34.6284 -86.7618 321° Northwest  Level FlightAware Approximate
Sat 11:17:00 AM 34.6333 -86.7667 321° Northwest  Level FlightAware Approximate
Sat 11:18:00 AM 34.6372 -86.7751 321° Northwest  Level Estimated
Sat 11:19:00 AM 34.6372 -86.7751 321° Northwest  Level Estimated
Sat 11:20:00 AM 34.6372 -86.7751 321° Northwest  Level Estimated
Sat 11:21:00 AM 34.6372 -86.7751 321° Northwest  Level Estimated
Sat 11:22:00 AM 34.6372 -86.7751 321° Northwest  Level Estimated
Sat 11:23:00 AM 34.6372 -86.7751 321° Northwest  Level Estimated
Sat 11:24:00 AM 34.6372 -86.7751 321° Northwest  Level Estimated
Sat 11:25:00 AM 34.6372 -86.7751 321° Northwest  Level Estimated
Sat 11:26:00 AM 34.6372 -86.7751 321° Northwest  Level Estimated
Sat 11:27:00 AM 34.6372 -86.7751 321° Northwest  Level Estimated
Sat 11:28:00 AM 34.6372 -86.7751 321° Northwest  Level Estimated
Sat 11:29:00 AM 34.6372 -86.7751 321° Northwest  Level Estimated
Sat 11:30:00 AM 34.6372 -86.7751 321° Northwest  Level Estimated

Login

Don't have an account? Register now (free) for customized features, flight alerts, and more!